Detall de PIREP

Printer-friendly versionPDF version

[2013/11/30 15:53:00]
Flight IATA:CT1001
Pilot Number:012
Company ICAO:CAT
Aircraft Type:F70/A
PAX:79
Aircraft Registration:PFJ
Departing Airport: LERS
Destination Airport: LEMH
Alternate Airport:LEPA
Online: VATSIM
Route:EBROX B28 BCN H70 SARGO
Flight Level:F190
No Slew and time accel
No pause
Crash detect
Detect pilot in Cockpit between each 30 and 45 minutes
15:53 Zero fuel Weight: 70899 Lbs, Fuel Weight: 9351 Lbs
15:53 VATSIM:LERS 301530Z 06003KT 020V110 9999 FEW020 SCT032 09/04 Q1011
15:53 VATSIM:LEMH 301530Z 29007KT 260V320 5000 -RA SCT020 BKN048 07/06 Q1011
15:53 VOICE CATALONIAN / IFR CLASSIC
16:00 Parking Brakes off
16:05 Take-off
16:05 Take off Weight: 79711 Lbs
16:05 Wind: 063º @ 003 Knots Heading: 069º
16:05 POS N41º 08´ 54´´ E001º 10´ 16´´
16:05 Gear Up: 151 Knots
16:05 Flaps:2 at 151 Knots
16:05 Flaps:1 at 181 Knots
16:06 Flaps:0 at 209 Knots
16:12 TOC
16:12 Fuel Weight: 7786 Lb
16:20 Wind:339º@058 Knots Heading: 126º Ground Speed: 458 Knots Altitude 18989 ft
16:32 TOD
16:32 Fuel Weight: 5706 Lb
16:35 Wind:315º@020 Knots Heading: 146º Ground Speed: 364 Knots Altitude 14101 ft
16:42 Flaps:1 at 223 Knots
16:42 Flaps:2 at 191 Knots
16:42 Flaps:3 at 152 Knots
16:43 Gear Down: 151 Knots
16:43 Flaps:4 at 122 Knots
16:45 TouchDown:Rate -252 ft/min Speed: 108 Knots
16:45 VATSIM:LEMH 301630Z 26008KT 230V290 6000 -RA FEW016 BKN040 07/06 Q1012
16:45 Land
16:45 Wind:288º@007 Knots
16:45 Heading: 026º
16:45 Flight Duration: 00:40
16:45 Landing Weight: 76139 Lbs
16:45 POS N39º 51´ 36´´ E004º 13´ 04´´
16:46 Parking brakes on
16:46 Block to Block Duration: 00:46
16:46 Final Fuel: 5196 Lbls
16:46 Spent Fuel: 4155 Lbls
16:46 Flight Length: 237 NM
16:46 TOD Land Length: 61 NM

Exportar CSV

Powered by Drupal - Modified by Danger4k